Huvudsida
METAR-TAF:

METAR-TAF

Flygplatser :

Bagdads internationella flygplats

Bagdad, Irak

latitud: 33-15-45N, longitud: 44-14-04E, höjd: 35 m

Aktuellt väderrapport

Denna rapport gjordes för 51 minuter sedan, klockan 13:00 UTC
Vind 16 kt från ost/sydost
Temperatur 24°C
Fuktighet 34%
Tryck 1014 hPa
Sikt 10 km eller mer
Brutna moln på en höjd av 3300 ft

METAR: ORBI 221300Z 12016KT 9999 BKN033 24/07 Q1014

Tid: 16:51 (13:51 UTC)

Väderprognos

Denna rapport gjordes för 2 timmar och 51 minuter sedan, klockan 11:00 UTC
Prognos gäller från 22 kl. 12 UTC till 23 kl. 12 UTC
Vind 12 kt från syd/sydost
Sikt: 8000 m
Spridda moln på en höjd av 4000 ft

TAF: ORBI 221100Z 2212/2312 16012KT 8000 SCT040

Aktuella väderrapporter och prognoser från 4000 flygplatser (METAR- och TAF-rapporter).

De tillgängliga stationerna syns som gula och röda prickar på kartan.

För musen över prickarna för att se namnen på stationerna.

Klicka sedan för att få väderrapporter och prognoser.

För att ändra kartan: Klicka på de gröna knapparna med ett svart kors på för att zooma in; den gröna knappen med ett streck på för att zooma ut; eller på de gröna pilarna för angränsande kartor.


METAR-TAF: